sensor_id;sensor_type;location;lat;lon;timestamp;temperature;humidity
81488;DHT22;70897;52.464;13.428;2024-02-26T00:01:32;3.80;99.90
81488;DHT22;70897;52.464;13.428;2024-02-26T00:04:18;3.70;99.90
81488;DHT22;70897;52.464;13.428;2024-02-26T00:07:03;3.70;99.90
81488;DHT22;70897;52.464;13.428;2024-02-26T00:09:48;3.70;99.90
81488;DHT22;70897;52.464;13.428;2024-02-26T00:12:33;3.80;99.90
81488;DHT22;70897;52.464;13.428;2024-02-26T00:15:18;3.90;99.90
81488;DHT22;70897;52.464;13.428;2024-02-26T00:18:03;3.90;99.90
81488;DHT22;70897;52.464;13.428;2024-02-26T00:20:48;3.90;99.90
81488;DHT22;70897;52.464;13.428;2024-02-26T00:23:33;3.90;99.90
81488;DHT22;70897;52.464;13.428;2024-02-26T00:26:19;3.80;99.90
81488;DHT22;70897;52.464;13.428;2024-02-26T00:29:03;3.80;99.90
81488;DHT22;70897;52.464;13.428;2024-02-26T00:31:49;3.70;99.90
81488;DHT22;70897;52.464;13.428;2024-02-26T00:34:34;3.50;99.90
81488;DHT22;70897;52.464;13.428;2024-02-26T00:37:19;3.50;99.90
81488;DHT22;70897;52.464;13.428;2024-02-26T00:40:04;3.30;99.90
81488;DHT22;70897;52.464;13.428;2024-02-26T00:42:49;3.30;99.90
81488;DHT22;70897;52.464;13.428;2024-02-26T00:45:34;3.20;99.90
81488;DHT22;70897;52.464;13.428;2024-02-26T00:48:20;3.10;99.90
81488;DHT22;70897;52.464;13.428;2024-02-26T00:51:05;3.10;99.90
81488;DHT22;70897;52.464;13.428;2024-02-26T00:53:50;3.20;99.90
81488;DHT22;70897;52.464;13.428;2024-02-26T00:56:35;3.10;99.90
81488;DHT22;70897;52.464;13.428;2024-02-26T00:59:20;3.20;99.90
81488;DHT22;70897;52.464;13.428;2024-02-26T01:02:05;3.10;99.90
81488;DHT22;70897;52.464;13.428;2024-02-26T01:04:51;3.00;99.90
81488;DHT22;70897;52.464;13.428;2024-02-26T01:07:36;3.00;99.90
81488;DHT22;70897;52.464;13.428;2024-02-26T01:10:21;2.90;99.90
81488;DHT22;70897;52.464;13.428;2024-02-26T01:13:08;2.90;99.90
81488;DHT22;70897;52.464;13.428;2024-02-26T01:15:53;2.70;99.90
81488;DHT22;70897;52.464;13.428;2024-02-26T01:18:38;2.70;99.90
81488;DHT22;70897;52.464;13.428;2024-02-26T01:21:23;2.70;99.90
81488;DHT22;70897;52.464;13.428;2024-02-26T01:24:08;2.70;99.90
81488;DHT22;70897;52.464;13.428;2024-02-26T01:26:53;2.70;99.90
81488;DHT22;70897;52.464;13.428;2024-02-26T01:29:38;2.60;99.90
81488;DHT22;70897;52.464;13.428;2024-02-26T01:32:23;2.70;99.90
81488;DHT22;70897;52.464;13.428;2024-02-26T01:35:08;2.70;99.90
81488;DHT22;70897;52.464;13.428;2024-02-26T01:37:56;2.70;99.90
81488;DHT22;70897;52.464;13.428;2024-02-26T01:40:41;2.60;99.90
81488;DHT22;70897;52.464;13.428;2024-02-26T01:43:26;2.50;99.90
81488;DHT22;70897;52.464;13.428;2024-02-26T01:46:13;2.50;99.90
81488;DHT22;70897;52.464;13.428;2024-02-26T01:48:59;2.50;99.90
81488;DHT22;70897;52.464;13.428;2024-02-26T01:51:45;2.50;99.90
81488;DHT22;70897;52.464;13.428;2024-02-26T01:54:31;2.50;99.90
81488;DHT22;70897;52.464;13.428;2024-02-26T01:57:16;2.60;99.90
81488;DHT22;70897;52.464;13.428;2024-02-26T02:00:01;2.70;99.90
81488;DHT22;70897;52.464;13.428;2024-02-26T02:02:50;2.90;99.90
81488;DHT22;70897;52.464;13.428;2024-02-26T02:05:36;2.90;99.90
81488;DHT22;70897;52.464;13.428;2024-02-26T02:08:27;2.80;99.90
81488;DHT22;70897;52.464;13.428;2024-02-26T02:11:12;2.80;99.90
81488;DHT22;70897;52.464;13.428;2024-02-26T02:13:59;2.90;99.90
81488;DHT22;70897;52.464;13.428;2024-02-26T02:16:44;2.80;99.90
81488;DHT22;70897;52.464;13.428;2024-02-26T02:19:29;3.00;99.90
81488;DHT22;70897;52.464;13.428;2024-02-26T02:22:14;3.10;99.90
81488;DHT22;70897;52.464;13.428;2024-02-26T02:24:59;3.20;99.90
81488;DHT22;70897;52.464;13.428;2024-02-26T02:27:45;3.20;99.90
81488;DHT22;70897;52.464;13.428;2024-02-26T02:30:31;3.10;99.90
81488;DHT22;70897;52.464;13.428;2024-02-26T02:33:17;3.10;99.90
81488;DHT22;70897;52.464;13.428;2024-02-26T02:36:03;2.90;99.90
81488;DHT22;70897;52.464;13.428;2024-02-26T02:38:49;2.90;99.90
81488;DHT22;70897;52.464;13.428;2024-02-26T02:41:35;2.90;99.90
81488;DHT22;70897;52.464;13.428;2024-02-26T02:44:20;2.90;99.90
81488;DHT22;70897;52.464;13.428;2024-02-26T02:47:05;2.80;99.90
81488;DHT22;70897;52.464;13.428;2024-02-26T02:49:50;2.80;99.90
81488;DHT22;70897;52.464;13.428;2024-02-26T02:52:35;2.70;99.90
81488;DHT22;70897;52.464;13.428;2024-02-26T02:55:20;2.60;99.90
81488;DHT22;70897;52.464;13.428;2024-02-26T02:58:05;2.50;99.90
81488;DHT22;70897;52.464;13.428;2024-02-26T03:00:50;2.50;99.90
81488;DHT22;70897;52.464;13.428;2024-02-26T03:03:35;2.50;99.90
81488;DHT22;70897;52.464;13.428;2024-02-26T03:06:21;2.40;99.90
81488;DHT22;70897;52.464;13.428;2024-02-26T03:09:06;2.30;99.90
81488;DHT22;70897;52.464;13.428;2024-02-26T03:11:51;2.20;99.90
81488;DHT22;70897;52.464;13.428;2024-02-26T03:14:36;2.20;99.90
81488;DHT22;70897;52.464;13.428;2024-02-26T03:17:21;2.10;99.90
81488;DHT22;70897;52.464;13.428;2024-02-26T03:20:09;2.10;99.90
81488;DHT22;70897;52.464;13.428;2024-02-26T03:22:54;2.10;99.90
81488;DHT22;70897;52.464;13.428;2024-02-26T03:25:39;2.00;99.90
81488;DHT22;70897;52.464;13.428;2024-02-26T03:28:24;2.10;99.90
81488;DHT22;70897;52.464;13.428;2024-02-26T03:31:09;2.10;99.90
81488;DHT22;70897;52.464;13.428;2024-02-26T03:33:55;2.10;99.90
81488;DHT22;70897;52.464;13.428;2024-02-26T03:36:41;2.10;99.90
81488;DHT22;70897;52.464;13.428;2024-02-26T03:39:27;2.10;99.90
81488;DHT22;70897;52.464;13.428;2024-02-26T03:42:12;2.10;99.90
81488;DHT22;70897;52.464;13.428;2024-02-26T03:44:57;2.00;99.90
81488;DHT22;70897;52.464;13.428;2024-02-26T03:47:42;2.00;99.90
81488;DHT22;70897;52.464;13.428;2024-02-26T03:50:27;2.10;99.90
81488;DHT22;70897;52.464;13.428;2024-02-26T03:53:12;2.00;99.90
81488;DHT22;70897;52.464;13.428;2024-02-26T03:55:57;2.00;99.90
81488;DHT22;70897;52.464;13.428;2024-02-26T03:58:42;2.00;99.90
81488;DHT22;70897;52.464;13.428;2024-02-26T04:01:27;2.00;99.90
81488;DHT22;70897;52.464;13.428;2024-02-26T04:04:13;2.00;99.90
81488;DHT22;70897;52.464;13.428;2024-02-26T04:06:57;2.00;99.90
81488;DHT22;70897;52.464;13.428;2024-02-26T04:09:43;2.10;99.90
81488;DHT22;70897;52.464;13.428;2024-02-26T04:12:28;2.10;99.90
81488;DHT22;70897;52.464;13.428;2024-02-26T04:15:13;2.00;99.90
81488;DHT22;70897;52.464;13.428;2024-02-26T04:17:58;2.00;99.90
81488;DHT22;70897;52.464;13.428;2024-02-26T04:20:43;2.00;99.90
81488;DHT22;70897;52.464;13.428;2024-02-26T04:23:28;2.00;99.90
81488;DHT22;70897;52.464;13.428;2024-02-26T04:26:13;2.00;99.90
81488;DHT22;70897;52.464;13.428;2024-02-26T04:28:58;2.00;99.90
81488;DHT22;70897;52.464;13.428;2024-02-26T04:31:43;2.00;99.90
81488;DHT22;70897;52.464;13.428;2024-02-26T04:34:30;2.00;99.90
81488;DHT22;70897;52.464;13.428;2024-02-26T04:37:15;2.00;99.90
81488;DHT22;70897;52.464;13.428;2024-02-26T04:40:01;2.00;99.90
81488;DHT22;70897;52.464;13.428;2024-02-26T04:42:45;2.00;99.90
81488;DHT22;70897;52.464;13.428;2024-02-26T04:45:31;2.00;99.90
81488;DHT22;70897;52.464;13.428;2024-02-26T04:48:16;2.10;99.90
81488;DHT22;70897;52.464;13.428;2024-02-26T04:51:01;2.10;99.90
81488;DHT22;70897;52.464;13.428;2024-02-26T04:53:46;2.20;99.90
81488;DHT22;70897;52.464;13.428;2024-02-26T04:56:31;2.20;99.90
81488;DHT22;70897;52.464;13.428;2024-02-26T04:59:16;2.30;99.90
81488;DHT22;70897;52.464;13.428;2024-02-26T05:02:01;2.40;99.90
81488;DHT22;70897;52.464;13.428;2024-02-26T05:04:47;2.50;99.90
81488;DHT22;70897;52.464;13.428;2024-02-26T05:07:32;2.50;99.90
81488;DHT22;70897;52.464;13.428;2024-02-26T05:10:17;2.50;99.90
81488;DHT22;70897;52.464;13.428;2024-02-26T05:13:02;2.40;99.90
81488;DHT22;70897;52.464;13.428;2024-02-26T05:15:47;2.50;99.90
81488;DHT22;70897;52.464;13.428;2024-02-26T05:18:34;2.50;99.90
81488;DHT22;70897;52.464;13.428;2024-02-26T05:21:19;2.50;99.90
81488;DHT22;70897;52.464;13.428;2024-02-26T05:24:04;2.50;99.90
81488;DHT22;70897;52.464;13.428;2024-02-26T05:26:49;2.60;99.90
81488;DHT22;70897;52.464;13.428;2024-02-26T05:29:34;2.60;99.90
81488;DHT22;70897;52.464;13.428;2024-02-26T05:32:19;2.70;99.90
81488;DHT22;70897;52.464;13.428;2024-02-26T05:35:04;2.70;99.90
81488;DHT22;70897;52.464;13.428;2024-02-26T05:37:49;2.60;99.90
81488;DHT22;70897;52.464;13.428;2024-02-26T05:40:34;2.60;99.90
81488;DHT22;70897;52.464;13.428;2024-02-26T05:43:20;2.60;99.90
81488;DHT22;70897;52.464;13.428;2024-02-26T05:46:05;2.60;99.90
81488;DHT22;70897;52.464;13.428;2024-02-26T05:48:51;2.60;99.90
81488;DHT22;70897;52.464;13.428;2024-02-26T05:51:36;2.60;99.90
81488;DHT22;70897;52.464;13.428;2024-02-26T05:54:21;2.50;99.90
81488;DHT22;70897;52.464;13.428;2024-02-26T05:57:06;2.50;99.90
81488;DHT22;70897;52.464;13.428;2024-02-26T05:59:51;2.60;99.90
81488;DHT22;70897;52.464;13.428;2024-02-26T06:02:36;2.50;99.90
81488;DHT22;70897;52.464;13.428;2024-02-26T06:05:21;2.60;99.90
81488;DHT22;70897;52.464;13.428;2024-02-26T06:08:07;2.70;99.90
81488;DHT22;70897;52.464;13.428;2024-02-26T06:10:52;2.70;99.90
81488;DHT22;70897;52.464;13.428;2024-02-26T06:13:37;2.80;99.90
81488;DHT22;70897;52.464;13.428;2024-02-26T06:16:22;2.90;99.90
81488;DHT22;70897;52.464;13.428;2024-02-26T06:19:07;2.90;99.90
81488;DHT22;70897;52.464;13.428;2024-02-26T06:21:52;3.10;99.90
81488;DHT22;70897;52.464;13.428;2024-02-26T06:24:37;3.20;99.90
81488;DHT22;70897;52.464;13.428;2024-02-26T06:27:23;3.30;99.90
81488;DHT22;70897;52.464;13.428;2024-02-26T06:30:09;3.30;99.90
81488;DHT22;70897;52.464;13.428;2024-02-26T06:32:55;3.40;99.90
81488;DHT22;70897;52.464;13.428;2024-02-26T06:35:40;3.50;99.90
81488;DHT22;70897;52.464;13.428;2024-02-26T06:38:26;3.60;99.90
81488;DHT22;70897;52.464;13.428;2024-02-26T06:41:11;3.80;99.90
81488;DHT22;70897;52.464;13.428;2024-02-26T06:43:56;4.10;99.90
81488;DHT22;70897;52.464;13.428;2024-02-26T06:46:41;4.40;99.90
81488;DHT22;70897;52.464;13.428;2024-02-26T06:49:27;4.80;99.90
81488;DHT22;70897;52.464;13.428;2024-02-26T06:52:12;5.30;99.90
81488;DHT22;70897;52.464;13.428;2024-02-26T06:54:57;5.80;99.90
81488;DHT22;70897;52.464;13.428;2024-02-26T06:57:42;6.40;99.90
81488;DHT22;70897;52.464;13.428;2024-02-26T07:00:27;6.90;99.90
81488;DHT22;70897;52.464;13.428;2024-02-26T07:03:12;7.10;99.90
81488;DHT22;70897;52.464;13.428;2024-02-26T07:05:58;7.00;99.90
81488;DHT22;70897;52.464;13.428;2024-02-26T07:08:43;7.10;99.90
81488;DHT22;70897;52.464;13.428;2024-02-26T07:11:28;7.10;99.90
81488;DHT22;70897;52.464;13.428;2024-02-26T07:14:13;7.40;99.90
81488;DHT22;70897;52.464;13.428;2024-02-26T07:16:58;8.10;99.90
81488;DHT22;70897;52.464;13.428;2024-02-26T07:19:43;8.50;99.90
81488;DHT22;70897;52.464;13.428;2024-02-26T07:22:28;9.10;99.90
81488;DHT22;70897;52.464;13.428;2024-02-26T07:25:13;9.60;99.90
81488;DHT22;70897;52.464;13.428;2024-02-26T07:27:58;9.70;99.90
81488;DHT22;70897;52.464;13.428;2024-02-26T07:30:44;9.80;99.90
81488;DHT22;70897;52.464;13.428;2024-02-26T07:33:29;9.80;99.90
81488;DHT22;70897;52.464;13.428;2024-02-26T07:36:14;10.00;99.90
81488;DHT22;70897;52.464;13.428;2024-02-26T07:38:59;9.60;99.90
81488;DHT22;70897;52.464;13.428;2024-02-26T07:41:44;9.20;99.90
81488;DHT22;70897;52.464;13.428;2024-02-26T07:44:32;9.20;99.90
81488;DHT22;70897;52.464;13.428;2024-02-26T07:47:18;9.10;99.90
81488;DHT22;70897;52.464;13.428;2024-02-26T07:50:04;8.90;99.90
81488;DHT22;70897;52.464;13.428;2024-02-26T07:52:49;8.60;99.90
81488;DHT22;70897;52.464;13.428;2024-02-26T07:55:35;8.50;99.90
81488;DHT22;70897;52.464;13.428;2024-02-26T07:58:21;8.70;99.90
81488;DHT22;70897;52.464;13.428;2024-02-26T08:01:06;8.30;99.90
81488;DHT22;70897;52.464;13.428;2024-02-26T08:03:52;8.10;99.90
81488;DHT22;70897;52.464;13.428;2024-02-26T08:06:38;7.90;99.90
81488;DHT22;70897;52.464;13.428;2024-02-26T08:09:23;7.50;99.90
81488;DHT22;70897;52.464;13.428;2024-02-26T08:12:08;7.40;99.90
81488;DHT22;70897;52.464;13.428;2024-02-26T08:14:53;7.40;99.90
81488;DHT22;70897;52.464;13.428;2024-02-26T08:17:38;7.20;99.90
81488;DHT22;70897;52.464;13.428;2024-02-26T08:20:23;7.40;99.90
81488;DHT22;70897;52.464;13.428;2024-02-26T08:23:08;7.40;99.90
81488;DHT22;70897;52.464;13.428;2024-02-26T08:25:54;7.50;99.90
81488;DHT22;70897;52.464;13.428;2024-02-26T08:28:39;7.80;99.90
81488;DHT22;70897;52.464;13.428;2024-02-26T08:31:24;8.40;99.90
81488;DHT22;70897;52.464;13.428;2024-02-26T08:34:09;9.20;99.90
81488;DHT22;70897;52.464;13.428;2024-02-26T08:36:54;10.20;99.90
81488;DHT22;70897;52.464;13.428;2024-02-26T08:39:39;10.90;99.90
81488;DHT22;70897;52.464;13.428;2024-02-26T08:42:24;10.60;99.90
81488;DHT22;70897;52.464;13.428;2024-02-26T08:45:09;11.10;97.60
81488;DHT22;70897;52.464;13.428;2024-02-26T08:47:55;10.90;95.40
81488;DHT22;70897;52.464;13.428;2024-02-26T08:50:40;11.20;97.50
81488;DHT22;70897;52.464;13.428;2024-02-26T08:53:25;11.50;94.30
81488;DHT22;70897;52.464;13.428;2024-02-26T08:56:11;12.40;90.80
81488;DHT22;70897;52.464;13.428;2024-02-26T08:59:01;12.90;84.90
81488;DHT22;70897;52.464;13.428;2024-02-26T09:01:48;13.00;78.60
81488;DHT22;70897;52.464;13.428;2024-02-26T09:04:33;13.40;75.20
81488;DHT22;70897;52.464;13.428;2024-02-26T09:07:18;13.80;74.00
81488;DHT22;70897;52.464;13.428;2024-02-26T09:10:04;13.80;72.10
81488;DHT22;70897;52.464;13.428;2024-02-26T09:12:50;13.80;71.80
81488;DHT22;70897;52.464;13.428;2024-02-26T09:15:35;13.50;70.10
81488;DHT22;70897;52.464;13.428;2024-02-26T09:18:20;13.10;72.00
81488;DHT22;70897;52.464;13.428;2024-02-26T09:21:06;12.60;77.10
81488;DHT22;70897;52.464;13.428;2024-02-26T09:23:51;12.20;78.70
81488;DHT22;70897;52.464;13.428;2024-02-26T09:26:36;12.00;82.30
81488;DHT22;70897;52.464;13.428;2024-02-26T09:29:21;11.80;83.60
81488;DHT22;70897;52.464;13.428;2024-02-26T09:32:06;12.00;83.80
81488;DHT22;70897;52.464;13.428;2024-02-26T09:34:52;12.50;80.80
81488;DHT22;70897;52.464;13.428;2024-02-26T09:37:37;13.00;76.80
81488;DHT22;70897;52.464;13.428;2024-02-26T09:40:22;13.80;74.10
81488;DHT22;70897;52.464;13.428;2024-02-26T09:43:10;14.20;69.80
81488;DHT22;70897;52.464;13.428;2024-02-26T09:45:59;14.80;65.40
81488;DHT22;70897;52.464;13.428;2024-02-26T09:48:44;15.50;63.50
81488;DHT22;70897;52.464;13.428;2024-02-26T09:51:30;16.30;59.30
81488;DHT22;70897;52.464;13.428;2024-02-26T09:54:17;16.70;56.60
81488;DHT22;70897;52.464;13.428;2024-02-26T09:57:03;16.80;54.40
81488;DHT22;70897;52.464;13.428;2024-02-26T09:59:53;16.20;56.20
81488;DHT22;70897;52.464;13.428;2024-02-26T10:02:39;16.60;56.10
81488;DHT22;70897;52.464;13.428;2024-02-26T10:05:24;17.20;54.90
81488;DHT22;70897;52.464;13.428;2024-02-26T10:08:11;17.60;53.30
81488;DHT22;70897;52.464;13.428;2024-02-26T10:10:57;18.10;51.30
81488;DHT22;70897;52.464;13.428;2024-02-26T10:13:42;18.10;50.80
81488;DHT22;70897;52.464;13.428;2024-02-26T10:16:28;18.00;51.40
81488;DHT22;70897;52.464;13.428;2024-02-26T10:19:28;18.40;51.50
81488;DHT22;70897;52.464;13.428;2024-02-26T10:22:14;18.90;49.30
81488;DHT22;70897;52.464;13.428;2024-02-26T10:24:59;19.10;48.10
81488;DHT22;70897;52.464;13.428;2024-02-26T10:27:45;19.80;47.00
81488;DHT22;70897;52.464;13.428;2024-02-26T10:30:31;19.90;46.30
81488;DHT22;70897;52.464;13.428;2024-02-26T10:33:17;20.10;46.00
81488;DHT22;70897;52.464;13.428;2024-02-26T10:36:11;20.30;45.20
81488;DHT22;70897;52.464;13.428;2024-02-26T10:38:57;20.80;44.20
81488;DHT22;70897;52.464;13.428;2024-02-26T10:41:43;21.20;42.10
81488;DHT22;70897;52.464;13.428;2024-02-26T10:44:28;21.60;42.00
81488;DHT22;70897;52.464;13.428;2024-02-26T10:47:14;21.40;42.00
81488;DHT22;70897;52.464;13.428;2024-02-26T10:50:02;21.90;40.90
81488;DHT22;70897;52.464;13.428;2024-02-26T10:52:47;22.20;40.10
81488;DHT22;70897;52.464;13.428;2024-02-26T10:55:33;23.00;38.40
81488;DHT22;70897;52.464;13.428;2024-02-26T10:58:20;23.30;38.30
81488;DHT22;70897;52.464;13.428;2024-02-26T11:01:07;22.80;38.00
81488;DHT22;70897;52.464;13.428;2024-02-26T11:03:53;23.20;37.00
81488;DHT22;70897;52.464;13.428;2024-02-26T11:06:38;22.10;38.40
81488;DHT22;70897;52.464;13.428;2024-02-26T11:09:24;21.50;40.00
81488;DHT22;70897;52.464;13.428;2024-02-26T11:12:14;21.90;38.70
81488;DHT22;70897;52.464;13.428;2024-02-26T11:14:59;22.10;38.20
81488;DHT22;70897;52.464;13.428;2024-02-26T11:17:46;22.20;39.00
81488;DHT22;70897;52.464;13.428;2024-02-26T11:20:32;22.00;37.90
81488;DHT22;70897;52.464;13.428;2024-02-26T11:23:19;21.60;38.00
81488;DHT22;70897;52.464;13.428;2024-02-26T11:26:20;20.20;41.40
81488;DHT22;70897;52.464;13.428;2024-02-26T11:29:09;20.70;40.60
81488;DHT22;70897;52.464;13.428;2024-02-26T11:31:55;20.20;40.80
81488;DHT22;70897;52.464;13.428;2024-02-26T11:34:41;20.20;41.30
81488;DHT22;70897;52.464;13.428;2024-02-26T11:37:27;20.20;41.30
81488;DHT22;70897;52.464;13.428;2024-02-26T11:40:13;19.60;42.00
81488;DHT22;70897;52.464;13.428;2024-02-26T11:42:59;19.30;43.40
81488;DHT22;70897;52.464;13.428;2024-02-26T11:45:48;19.80;43.30
81488;DHT22;70897;52.464;13.428;2024-02-26T11:48:34;20.30;42.10
81488;DHT22;70897;52.464;13.428;2024-02-26T11:51:25;20.00;42.60
81488;DHT22;70897;52.464;13.428;2024-02-26T11:54:10;19.90;42.50
81488;DHT22;70897;52.464;13.428;2024-02-26T11:56:57;20.10;41.80
81488;DHT22;70897;52.464;13.428;2024-02-26T11:59:44;19.60;42.60
81488;DHT22;70897;52.464;13.428;2024-02-26T12:05:32;18.90;44.60
81488;DHT22;70897;52.464;13.428;2024-02-26T12:08:17;19.10;43.70
81488;DHT22;70897;52.464;13.428;2024-02-26T12:11:14;19.00;44.50
81488;DHT22;70897;52.464;13.428;2024-02-26T12:14:00;19.10;43.10
81488;DHT22;70897;52.464;13.428;2024-02-26T12:16:45;19.40;43.30
81488;DHT22;70897;52.464;13.428;2024-02-26T12:19:31;19.60;41.40
81488;DHT22;70897;52.464;13.428;2024-02-26T12:22:16;19.20;42.20
81488;DHT22;70897;52.464;13.428;2024-02-26T12:25:01;20.00;41.20
81488;DHT22;70897;52.464;13.428;2024-02-26T12:27:48;20.80;39.60
81488;DHT22;70897;52.464;13.428;2024-02-26T12:30:33;21.10;39.90
81488;DHT22;70897;52.464;13.428;2024-02-26T12:33:20;20.90;39.00
81488;DHT22;70897;52.464;13.428;2024-02-26T12:36:05;20.40;39.50
81488;DHT22;70897;52.464;13.428;2024-02-26T12:38:51;20.30;39.60
81488;DHT22;70897;52.464;13.428;2024-02-26T12:41:37;20.70;38.70
81488;DHT22;70897;52.464;13.428;2024-02-26T12:44:26;20.10;39.60
81488;DHT22;70897;52.464;13.428;2024-02-26T12:47:11;21.10;37.10
81488;DHT22;70897;52.464;13.428;2024-02-26T12:50:01;20.80;36.20
81488;DHT22;70897;52.464;13.428;2024-02-26T12:52:47;20.30;38.20
81488;DHT22;70897;52.464;13.428;2024-02-26T12:55:33;19.30;38.30
81488;DHT22;70897;52.464;13.428;2024-02-26T12:58:19;19.50;39.00
81488;DHT22;70897;52.464;13.428;2024-02-26T13:01:14;19.90;38.30
81488;DHT22;70897;52.464;13.428;2024-02-26T13:03:59;19.80;37.30
81488;DHT22;70897;52.464;13.428;2024-02-26T13:06:51;19.50;37.90
81488;DHT22;70897;52.464;13.428;2024-02-26T13:09:36;19.10;39.00
81488;DHT22;70897;52.464;13.428;2024-02-26T13:12:21;18.20;40.10
81488;DHT22;70897;52.464;13.428;2024-02-26T13:15:07;17.80;41.40
81488;DHT22;70897;52.464;13.428;2024-02-26T13:17:52;17.40;42.00
81488;DHT22;70897;52.464;13.428;2024-02-26T13:20:38;16.70;43.40
81488;DHT22;70897;52.464;13.428;2024-02-26T13:23:24;16.40;44.40
81488;DHT22;70897;52.464;13.428;2024-02-26T13:26:12;16.10;44.30
81488;DHT22;70897;52.464;13.428;2024-02-26T13:29:01;15.70;44.00
81488;DHT22;70897;52.464;13.428;2024-02-26T13:31:48;15.40;44.90
81488;DHT22;70897;52.464;13.428;2024-02-26T13:34:38;15.40;45.50
81488;DHT22;70897;52.464;13.428;2024-02-26T13:37:23;15.40;46.90
81488;DHT22;70897;52.464;13.428;2024-02-26T13:40:09;15.50;47.20
81488;DHT22;70897;52.464;13.428;2024-02-26T13:42:54;15.30;49.80
81488;DHT22;70897;52.464;13.428;2024-02-26T13:45:39;15.10;51.10
81488;DHT22;70897;52.464;13.428;2024-02-26T13:48:24;15.00;51.50
81488;DHT22;70897;52.464;13.428;2024-02-26T13:51:11;14.60;52.40
81488;DHT22;70897;52.464;13.428;2024-02-26T13:53:56;14.40;53.00
81488;DHT22;70897;52.464;13.428;2024-02-26T13:56:41;14.30;53.40
81488;DHT22;70897;52.464;13.428;2024-02-26T13:59:26;14.20;53.60
81488;DHT22;70897;52.464;13.428;2024-02-26T14:02:11;14.00;54.60
81488;DHT22;70897;52.464;13.428;2024-02-26T14:04:57;13.90;54.90
81488;DHT22;70897;52.464;13.428;2024-02-26T14:07:43;13.90;55.30
81488;DHT22;70897;52.464;13.428;2024-02-26T14:10:27;13.60;56.40
81488;DHT22;70897;52.464;13.428;2024-02-26T14:13:13;13.40;57.20
81488;DHT22;70897;52.464;13.428;2024-02-26T14:15:58;13.40;57.70
81488;DHT22;70897;52.464;13.428;2024-02-26T14:18:43;13.30;57.80
81488;DHT22;70897;52.464;13.428;2024-02-26T14:21:30;13.20;58.50
81488;DHT22;70897;52.464;13.428;2024-02-26T14:24:15;13.10;58.70
81488;DHT22;70897;52.464;13.428;2024-02-26T14:27:00;13.10;58.90
81488;DHT22;70897;52.464;13.428;2024-02-26T14:29:45;13.10;59.00
81488;DHT22;70897;52.464;13.428;2024-02-26T14:32:30;13.00;59.50
81488;DHT22;70897;52.464;13.428;2024-02-26T14:35:19;12.90;60.10
81488;DHT22;70897;52.464;13.428;2024-02-26T14:38:04;12.80;60.60
81488;DHT22;70897;52.464;13.428;2024-02-26T14:40:50;12.80;60.70
81488;DHT22;70897;52.464;13.428;2024-02-26T14:43:35;12.50;62.00
81488;DHT22;70897;52.464;13.428;2024-02-26T14:46:20;12.40;63.00
81488;DHT22;70897;52.464;13.428;2024-02-26T14:49:05;12.40;63.90
81488;DHT22;70897;52.464;13.428;2024-02-26T14:51:50;12.40;64.80
81488;DHT22;70897;52.464;13.428;2024-02-26T14:54:36;12.30;64.30
81488;DHT22;70897;52.464;13.428;2024-02-26T14:57:24;12.30;64.90
81488;DHT22;70897;52.464;13.428;2024-02-26T15:00:10;12.30;66.20
81488;DHT22;70897;52.464;13.428;2024-02-26T15:02:55;12.30;65.90
81488;DHT22;70897;52.464;13.428;2024-02-26T15:05:40;12.20;66.50
81488;DHT22;70897;52.464;13.428;2024-02-26T15:08:26;12.10;67.40
81488;DHT22;70897;52.464;13.428;2024-02-26T15:11:11;12.00;68.10
81488;DHT22;70897;52.464;13.428;2024-02-26T15:13:56;11.90;68.40
81488;DHT22;70897;52.464;13.428;2024-02-26T15:16:41;11.90;69.30
81488;DHT22;70897;52.464;13.428;2024-02-26T15:19:26;11.80;70.10
81488;DHT22;70897;52.464;13.428;2024-02-26T15:22:12;11.70;71.10
81488;DHT22;70897;52.464;13.428;2024-02-26T15:24:57;11.60;71.60
81488;DHT22;70897;52.464;13.428;2024-02-26T15:27:42;11.60;71.60
81488;DHT22;70897;52.464;13.428;2024-02-26T15:30:27;11.60;72.80
81488;DHT22;70897;52.464;13.428;2024-02-26T15:33:14;11.50;73.10
81488;DHT22;70897;52.464;13.428;2024-02-26T15:35:59;11.40;74.10
81488;DHT22;70897;52.464;13.428;2024-02-26T15:38:44;11.40;74.60
81488;DHT22;70897;52.464;13.428;2024-02-26T15:41:29;11.30;75.00
81488;DHT22;70897;52.464;13.428;2024-02-26T15:44:15;11.30;76.20
81488;DHT22;70897;52.464;13.428;2024-02-26T15:47:00;11.20;77.10
81488;DHT22;70897;52.464;13.428;2024-02-26T15:49:45;11.10;78.50
81488;DHT22;70897;52.464;13.428;2024-02-26T15:52:30;11.10;79.60
81488;DHT22;70897;52.464;13.428;2024-02-26T15:55:16;11.00;80.90
81488;DHT22;70897;52.464;13.428;2024-02-26T15:58:01;10.90;82.10
81488;DHT22;70897;52.464;13.428;2024-02-26T16:00:46;10.80;83.90
81488;DHT22;70897;52.464;13.428;2024-02-26T16:03:37;10.70;86.00
81488;DHT22;70897;52.464;13.428;2024-02-26T16:06:51;10.60;87.90
81488;DHT22;70897;52.464;13.428;2024-02-26T16:09:34;10.60;90.00
81488;DHT22;70897;52.464;13.428;2024-02-26T16:12:26;10.50;91.20
81488;DHT22;70897;52.464;13.428;2024-02-26T16:15:15;10.50;92.40
81488;DHT22;70897;52.464;13.428;2024-02-26T16:18:01;10.40;93.80
81488;DHT22;70897;52.464;13.428;2024-02-26T16:20:46;10.30;95.50
81488;DHT22;70897;52.464;13.428;2024-02-26T16:23:32;10.30;97.20
81488;DHT22;70897;52.464;13.428;2024-02-26T16:26:18;10.10;98.70
81488;DHT22;70897;52.464;13.428;2024-02-26T16:29:03;10.00;99.90
81488;DHT22;70897;52.464;13.428;2024-02-26T16:31:48;10.00;99.90
81488;DHT22;70897;52.464;13.428;2024-02-26T16:34:34;9.90;99.90
81488;DHT22;70897;52.464;13.428;2024-02-26T16:37:19;9.80;99.90
81488;DHT22;70897;52.464;13.428;2024-02-26T16:40:05;9.70;99.90
81488;DHT22;70897;52.464;13.428;2024-02-26T16:42:50;9.80;99.90
81488;DHT22;70897;52.464;13.428;2024-02-26T16:45:35;9.70;99.90
81488;DHT22;70897;52.464;13.428;2024-02-26T16:48:21;9.70;99.90
81488;DHT22;70897;52.464;13.428;2024-02-26T16:51:06;9.70;99.90
81488;DHT22;70897;52.464;13.428;2024-02-26T16:53:51;9.70;99.90
81488;DHT22;70897;52.464;13.428;2024-02-26T16:56:36;9.70;99.90
81488;DHT22;70897;52.464;13.428;2024-02-26T16:59:21;9.70;99.90
81488;DHT22;70897;52.464;13.428;2024-02-26T17:02:06;9.60;99.90
81488;DHT22;70897;52.464;13.428;2024-02-26T17:04:52;9.70;99.90
81488;DHT22;70897;52.464;13.428;2024-02-26T17:07:37;9.70;99.90
81488;DHT22;70897;52.464;13.428;2024-02-26T17:10:25;9.70;99.90
81488;DHT22;70897;52.464;13.428;2024-02-26T17:13:10;9.70;99.90
81488;DHT22;70897;52.464;13.428;2024-02-26T17:15:57;9.70;99.90
81488;DHT22;70897;52.464;13.428;2024-02-26T17:18:42;9.60;99.90
81488;DHT22;70897;52.464;13.428;2024-02-26T17:21:27;9.70;99.90
81488;DHT22;70897;52.464;13.428;2024-02-26T17:24:12;9.60;99.90